sensor_id;sensor_type;location;lat;lon;timestamp;P1;durP1;ratioP1;P2;durP2;ratioP2
1402;SDS011;696;48.546;9.896;2022-11-12T00:02:09;5.68;;;2.97;;
1402;SDS011;696;48.546;9.896;2022-11-12T00:04:35;4.32;;;3.00;;
1402;SDS011;696;48.546;9.896;2022-11-12T00:07:00;4.65;;;3.22;;
1402;SDS011;696;48.546;9.896;2022-11-12T00:09:25;4.15;;;3.13;;
1402;SDS011;696;48.546;9.896;2022-11-12T00:11:51;6.45;;;3.67;;
1402;SDS011;696;48.546;9.896;2022-11-12T00:14:16;4.88;;;3.60;;
1402;SDS011;696;48.546;9.896;2022-11-12T00:16:41;5.97;;;3.83;;
1402;SDS011;696;48.546;9.896;2022-11-12T00:19:07;7.85;;;4.15;;
1402;SDS011;696;48.546;9.896;2022-11-12T00:21:32;5.72;;;4.10;;
1402;SDS011;696;48.546;9.896;2022-11-12T00:23:57;6.72;;;3.65;;
1402;SDS011;696;48.546;9.896;2022-11-12T00:26:23;6.10;;;4.13;;
1402;SDS011;696;48.546;9.896;2022-11-12T00:28:48;4.80;;;3.78;;
1402;SDS011;696;48.546;9.896;2022-11-12T00:31:14;5.38;;;3.72;;
1402;SDS011;696;48.546;9.896;2022-11-12T00:33:39;7.55;;;4.15;;
1402;SDS011;696;48.546;9.896;2022-11-12T00:36:06;5.65;;;4.03;;
1402;SDS011;696;48.546;9.896;2022-11-12T00:38:31;6.55;;;4.40;;
1402;SDS011;696;48.546;9.896;2022-11-12T00:41:00;5.15;;;4.15;;
1402;SDS011;696;48.546;9.896;2022-11-12T00:43:25;7.00;;;4.03;;
1402;SDS011;696;48.546;9.896;2022-11-12T00:45:51;3.85;;;3.40;;
1402;SDS011;696;48.546;9.896;2022-11-12T00:48:16;11.38;;;3.83;;
1402;SDS011;696;48.546;9.896;2022-11-12T00:50:42;5.57;;;3.83;;
1402;SDS011;696;48.546;9.896;2022-11-12T00:53:07;6.38;;;4.03;;
1402;SDS011;696;48.546;9.896;2022-11-12T00:55:33;7.03;;;4.40;;
1402;SDS011;696;48.546;9.896;2022-11-12T00:57:58;8.45;;;4.40;;
1402;SDS011;696;48.546;9.896;2022-11-12T01:00:23;4.97;;;3.78;;
1402;SDS011;696;48.546;9.896;2022-11-12T01:02:49;6.28;;;4.47;;
1402;SDS011;696;48.546;9.896;2022-11-12T01:05:15;5.82;;;3.90;;
1402;SDS011;696;48.546;9.896;2022-11-12T01:07:41;5.57;;;3.95;;
1402;SDS011;696;48.546;9.896;2022-11-12T01:10:07;6.03;;;3.78;;
1402;SDS011;696;48.546;9.896;2022-11-12T01:12:33;5.63;;;4.15;;
1402;SDS011;696;48.546;9.896;2022-11-12T01:14:59;5.18;;;3.80;;
1402;SDS011;696;48.546;9.896;2022-11-12T01:17:25;7.03;;;4.43;;
1402;SDS011;696;48.546;9.896;2022-11-12T01:19:51;6.63;;;3.95;;
1402;SDS011;696;48.546;9.896;2022-11-12T01:22:16;6.55;;;3.90;;
1402;SDS011;696;48.546;9.896;2022-11-12T01:24:42;5.35;;;3.83;;
1402;SDS011;696;48.546;9.896;2022-11-12T01:27:07;5.63;;;4.03;;
1402;SDS011;696;48.546;9.896;2022-11-12T01:29:33;6.40;;;4.05;;
1402;SDS011;696;48.546;9.896;2022-11-12T01:31:58;9.25;;;4.35;;
1402;SDS011;696;48.546;9.896;2022-11-12T01:34:24;6.38;;;3.85;;
1402;SDS011;696;48.546;9.896;2022-11-12T01:36:49;6.60;;;4.07;;
1402;SDS011;696;48.546;9.896;2022-11-12T01:39:15;5.85;;;4.28;;
1402;SDS011;696;48.546;9.896;2022-11-12T01:41:40;4.82;;;3.63;;
1402;SDS011;696;48.546;9.896;2022-11-12T01:46:46;5.55;;;3.90;;
1402;SDS011;696;48.546;9.896;2022-11-12T01:52:09;7.85;;;4.85;;
1402;SDS011;696;48.546;9.896;2022-11-12T01:54:36;6.40;;;4.30;;
1402;SDS011;696;48.546;9.896;2022-11-12T01:57:02;10.70;;;4.97;;
1402;SDS011;696;48.546;9.896;2022-11-12T01:59:29;5.57;;;4.15;;
1402;SDS011;696;48.546;9.896;2022-11-12T02:01:58;6.25;;;4.13;;
1402;SDS011;696;48.546;9.896;2022-11-12T02:04:24;4.90;;;3.85;;
1402;SDS011;696;48.546;9.896;2022-11-12T02:06:50;5.32;;;3.88;;
1402;SDS011;696;48.546;9.896;2022-11-12T02:09:16;7.45;;;3.95;;
1402;SDS011;696;48.546;9.896;2022-11-12T02:11:42;5.43;;;3.85;;
1402;SDS011;696;48.546;9.896;2022-11-12T02:14:08;5.07;;;3.80;;
1402;SDS011;696;48.546;9.896;2022-11-12T02:16:37;7.97;;;4.22;;
1402;SDS011;696;48.546;9.896;2022-11-12T02:19:05;5.32;;;3.75;;
1402;SDS011;696;48.546;9.896;2022-11-12T02:21:32;7.15;;;4.82;;
1402;SDS011;696;48.546;9.896;2022-11-12T02:26:41;8.05;;;4.07;;
1402;SDS011;696;48.546;9.896;2022-11-12T02:29:09;5.70;;;3.95;;
1402;SDS011;696;48.546;9.896;2022-11-12T02:31:35;11.43;;;4.22;;
1402;SDS011;696;48.546;9.896;2022-11-12T02:34:00;5.13;;;4.20;;
1402;SDS011;696;48.546;9.896;2022-11-12T02:36:26;6.57;;;4.05;;
1402;SDS011;696;48.546;9.896;2022-11-12T02:38:52;6.57;;;4.60;;
1402;SDS011;696;48.546;9.896;2022-11-12T02:41:17;12.95;;;4.13;;
1402;SDS011;696;48.546;9.896;2022-11-12T02:43:43;4.38;;;3.28;;
1402;SDS011;696;48.546;9.896;2022-11-12T02:46:08;7.10;;;3.97;;
1402;SDS011;696;48.546;9.896;2022-11-12T02:48:34;5.32;;;3.63;;
1402;SDS011;696;48.546;9.896;2022-11-12T02:50:59;5.20;;;3.65;;
1402;SDS011;696;48.546;9.896;2022-11-12T02:53:24;4.78;;;3.33;;
1402;SDS011;696;48.546;9.896;2022-11-12T02:55:50;4.95;;;3.75;;
1402;SDS011;696;48.546;9.896;2022-11-12T02:58:15;4.55;;;3.28;;
1402;SDS011;696;48.546;9.896;2022-11-12T03:00:41;4.07;;;3.13;;
1402;SDS011;696;48.546;9.896;2022-11-12T03:03:06;6.80;;;3.53;;
1402;SDS011;696;48.546;9.896;2022-11-12T03:05:32;4.25;;;3.22;;
1402;SDS011;696;48.546;9.896;2022-11-12T03:08:04;3.25;;;2.88;;
1402;SDS011;696;48.546;9.896;2022-11-12T03:10:30;4.55;;;3.80;;
1402;SDS011;696;48.546;9.896;2022-11-12T03:12:57;3.85;;;2.90;;
1402;SDS011;696;48.546;9.896;2022-11-12T03:15:23;5.22;;;3.03;;
1402;SDS011;696;48.546;9.896;2022-11-12T03:17:49;4.25;;;3.10;;
1402;SDS011;696;48.546;9.896;2022-11-12T03:20:14;3.70;;;2.65;;
1402;SDS011;696;48.546;9.896;2022-11-12T03:22:40;3.85;;;2.83;;
1402;SDS011;696;48.546;9.896;2022-11-12T03:25:06;3.97;;;2.80;;
1402;SDS011;696;48.546;9.896;2022-11-12T03:27:32;4.30;;;3.00;;
1402;SDS011;696;48.546;9.896;2022-11-12T03:29:58;3.20;;;2.60;;
1402;SDS011;696;48.546;9.896;2022-11-12T03:32:23;3.83;;;2.75;;
1402;SDS011;696;48.546;9.896;2022-11-12T03:34:49;3.10;;;2.75;;
1402;SDS011;696;48.546;9.896;2022-11-12T03:37:14;4.43;;;3.05;;
1402;SDS011;696;48.546;9.896;2022-11-12T03:39:40;4.63;;;3.13;;
1402;SDS011;696;48.546;9.896;2022-11-12T03:42:05;3.28;;;2.92;;
1402;SDS011;696;48.546;9.896;2022-11-12T03:44:31;3.15;;;2.58;;
1402;SDS011;696;48.546;9.896;2022-11-12T03:46:56;3.80;;;3.00;;
1402;SDS011;696;48.546;9.896;2022-11-12T03:49:21;6.05;;;3.28;;
1402;SDS011;696;48.546;9.896;2022-11-12T03:51:47;3.72;;;3.00;;
1402;SDS011;696;48.546;9.896;2022-11-12T03:54:12;5.10;;;3.42;;
1402;SDS011;696;48.546;9.896;2022-11-12T03:56:37;3.35;;;2.92;;
1402;SDS011;696;48.546;9.896;2022-11-12T03:59:03;4.43;;;3.45;;
1402;SDS011;696;48.546;9.896;2022-11-12T04:01:28;4.63;;;3.50;;
1402;SDS011;696;48.546;9.896;2022-11-12T04:03:54;6.38;;;3.40;;
1402;SDS011;696;48.546;9.896;2022-11-12T04:06:19;3.85;;;3.15;;
1402;SDS011;696;48.546;9.896;2022-11-12T04:09:03;5.30;;;3.30;;
1402;SDS011;696;48.546;9.896;2022-11-12T04:11:28;6.68;;;4.47;;
1402;SDS011;696;48.546;9.896;2022-11-12T04:13:54;5.20;;;3.80;;
1402;SDS011;696;48.546;9.896;2022-11-12T04:16:20;4.72;;;3.47;;
1402;SDS011;696;48.546;9.896;2022-11-12T04:19:05;5.25;;;3.95;;
1402;SDS011;696;48.546;9.896;2022-11-12T04:21:54;4.63;;;3.40;;
1402;SDS011;696;48.546;9.896;2022-11-12T04:24:28;6.82;;;4.00;;
1402;SDS011;696;48.546;9.896;2022-11-12T04:27:17;4.38;;;3.55;;
1402;SDS011;696;48.546;9.896;2022-11-12T04:29:43;6.47;;;4.13;;
1402;SDS011;696;48.546;9.896;2022-11-12T04:32:27;4.22;;;3.28;;
1402;SDS011;696;48.546;9.896;2022-11-12T04:34:54;6.68;;;3.60;;
1402;SDS011;696;48.546;9.896;2022-11-12T04:37:20;5.50;;;4.10;;
1402;SDS011;696;48.546;9.896;2022-11-12T04:39:46;7.20;;;4.38;;
1402;SDS011;696;48.546;9.896;2022-11-12T04:42:12;11.13;;;3.90;;
1402;SDS011;696;48.546;9.896;2022-11-12T04:44:56;7.05;;;3.55;;
1402;SDS011;696;48.546;9.896;2022-11-12T04:47:33;8.52;;;3.70;;
1402;SDS011;696;48.546;9.896;2022-11-12T04:50:00;5.70;;;3.92;;
1402;SDS011;696;48.546;9.896;2022-11-12T04:52:26;5.10;;;3.53;;
1402;SDS011;696;48.546;9.896;2022-11-12T04:54:52;6.47;;;4.38;;
1402;SDS011;696;48.546;9.896;2022-11-12T04:57:18;4.90;;;3.33;;
1402;SDS011;696;48.546;9.896;2022-11-12T04:59:43;4.53;;;3.45;;
1402;SDS011;696;48.546;9.896;2022-11-12T05:02:09;4.95;;;3.38;;
1402;SDS011;696;48.546;9.896;2022-11-12T05:04:34;5.90;;;3.80;;
1402;SDS011;696;48.546;9.896;2022-11-12T05:07:00;4.78;;;3.20;;
1402;SDS011;696;48.546;9.896;2022-11-12T05:09:26;4.60;;;3.10;;
1402;SDS011;696;48.546;9.896;2022-11-12T05:11:52;4.60;;;3.10;;
1402;SDS011;696;48.546;9.896;2022-11-12T05:14:21;5.18;;;3.10;;
1402;SDS011;696;48.546;9.896;2022-11-12T05:16:47;3.88;;;2.85;;
1402;SDS011;696;48.546;9.896;2022-11-12T05:19:12;4.35;;;3.30;;
1402;SDS011;696;48.546;9.896;2022-11-12T05:21:38;4.10;;;3.20;;
1402;SDS011;696;48.546;9.896;2022-11-12T05:24:22;4.90;;;3.42;;
1402;SDS011;696;48.546;9.896;2022-11-12T05:26:48;4.82;;;3.55;;
1402;SDS011;696;48.546;9.896;2022-11-12T05:29:13;7.13;;;4.03;;
1402;SDS011;696;48.546;9.896;2022-11-12T05:31:38;4.75;;;3.33;;
1402;SDS011;696;48.546;9.896;2022-11-12T05:34:04;5.82;;;3.92;;
1402;SDS011;696;48.546;9.896;2022-11-12T05:36:29;7.88;;;3.97;;
1402;SDS011;696;48.546;9.896;2022-11-12T05:38:54;5.72;;;3.38;;
1402;SDS011;696;48.546;9.896;2022-11-12T05:41:20;7.22;;;3.60;;
1402;SDS011;696;48.546;9.896;2022-11-12T05:43:45;8.15;;;3.83;;
1402;SDS011;696;48.546;9.896;2022-11-12T05:46:10;7.80;;;3.67;;
1402;SDS011;696;48.546;9.896;2022-11-12T05:48:36;6.07;;;3.90;;
1402;SDS011;696;48.546;9.896;2022-11-12T05:51:01;8.13;;;3.70;;
1402;SDS011;696;48.546;9.896;2022-11-12T05:53:27;6.10;;;4.00;;
1402;SDS011;696;48.546;9.896;2022-11-12T05:55:52;8.20;;;4.57;;
1402;SDS011;696;48.546;9.896;2022-11-12T05:58:18;5.80;;;4.00;;
1402;SDS011;696;48.546;9.896;2022-11-12T06:00:43;5.60;;;4.13;;
1402;SDS011;696;48.546;9.896;2022-11-12T06:03:09;5.60;;;4.07;;
1402;SDS011;696;48.546;9.896;2022-11-12T06:05:35;7.10;;;4.40;;
1402;SDS011;696;48.546;9.896;2022-11-12T06:08:01;13.52;;;4.43;;
1402;SDS011;696;48.546;9.896;2022-11-12T06:10:28;9.48;;;4.63;;
1402;SDS011;696;48.546;9.896;2022-11-12T06:12:53;7.07;;;5.05;;
1402;SDS011;696;48.546;9.896;2022-11-12T06:15:19;9.25;;;5.45;;
1402;SDS011;696;48.546;9.896;2022-11-12T06:17:45;7.60;;;4.53;;
1402;SDS011;696;48.546;9.896;2022-11-12T06:20:10;6.07;;;4.65;;
1402;SDS011;696;48.546;9.896;2022-11-12T06:22:36;11.10;;;5.13;;
1402;SDS011;696;48.546;9.896;2022-11-12T06:25:01;8.60;;;5.07;;
1402;SDS011;696;48.546;9.896;2022-11-12T06:27:27;6.07;;;4.38;;
1402;SDS011;696;48.546;9.896;2022-11-12T06:29:53;7.13;;;5.00;;
1402;SDS011;696;48.546;9.896;2022-11-12T06:32:18;7.15;;;4.45;;
1402;SDS011;696;48.546;9.896;2022-11-12T06:34:43;9.20;;;4.43;;
1402;SDS011;696;48.546;9.896;2022-11-12T06:37:09;6.18;;;4.50;;
1402;SDS011;696;48.546;9.896;2022-11-12T06:39:34;10.50;;;5.05;;
1402;SDS011;696;48.546;9.896;2022-11-12T06:41:59;5.88;;;4.22;;
1402;SDS011;696;48.546;9.896;2022-11-12T06:44:26;7.07;;;4.70;;
1402;SDS011;696;48.546;9.896;2022-11-12T06:46:51;8.85;;;5.10;;
1402;SDS011;696;48.546;9.896;2022-11-12T06:49:17;8.60;;;5.10;;
1402;SDS011;696;48.546;9.896;2022-11-12T06:51:42;8.23;;;4.95;;
1402;SDS011;696;48.546;9.896;2022-11-12T06:54:08;6.95;;;4.97;;
1402;SDS011;696;48.546;9.896;2022-11-12T06:56:33;9.20;;;5.13;;
1402;SDS011;696;48.546;9.896;2022-11-12T06:58:58;8.57;;;5.03;;
1402;SDS011;696;48.546;9.896;2022-11-12T07:01:24;7.20;;;4.80;;
1402;SDS011;696;48.546;9.896;2022-11-12T07:03:50;5.82;;;4.35;;
1402;SDS011;696;48.546;9.896;2022-11-12T07:06:16;9.80;;;4.72;;
1402;SDS011;696;48.546;9.896;2022-11-12T07:08:47;7.05;;;4.72;;
1402;SDS011;696;48.546;9.896;2022-11-12T07:11:13;5.70;;;4.20;;
1402;SDS011;696;48.546;9.896;2022-11-12T07:13:39;8.13;;;4.22;;
1402;SDS011;696;48.546;9.896;2022-11-12T07:16:05;7.18;;;4.32;;
1402;SDS011;696;48.546;9.896;2022-11-12T07:18:32;6.72;;;4.57;;
1402;SDS011;696;48.546;9.896;2022-11-12T07:21:00;7.60;;;4.28;;
1402;SDS011;696;48.546;9.896;2022-11-12T07:23:26;6.03;;;4.20;;
1402;SDS011;696;48.546;9.896;2022-11-12T07:25:59;7.50;;;4.32;;
1402;SDS011;696;48.546;9.896;2022-11-12T07:28:26;5.95;;;3.92;;
1402;SDS011;696;48.546;9.896;2022-11-12T07:30:59;4.70;;;3.85;;
1402;SDS011;696;48.546;9.896;2022-11-12T07:33:30;8.73;;;4.57;;
1402;SDS011;696;48.546;9.896;2022-11-12T07:36:03;6.00;;;4.28;;
1402;SDS011;696;48.546;9.896;2022-11-12T07:38:31;6.60;;;4.65;;
1402;SDS011;696;48.546;9.896;2022-11-12T07:41:01;7.32;;;4.22;;
1402;SDS011;696;48.546;9.896;2022-11-12T07:43:28;8.20;;;4.10;;
1402;SDS011;696;48.546;9.896;2022-11-12T07:45:58;10.40;;;4.28;;
1402;SDS011;696;48.546;9.896;2022-11-12T07:48:24;6.00;;;4.03;;
1402;SDS011;696;48.546;9.896;2022-11-12T07:50:49;6.47;;;4.05;;
1402;SDS011;696;48.546;9.896;2022-11-12T07:53:15;7.60;;;5.15;;
1402;SDS011;696;48.546;9.896;2022-11-12T07:55:40;5.63;;;4.30;;
1402;SDS011;696;48.546;9.896;2022-11-12T07:58:05;9.35;;;4.97;;
1402;SDS011;696;48.546;9.896;2022-11-12T08:00:31;7.15;;;3.78;;
1402;SDS011;696;48.546;9.896;2022-11-12T08:02:58;5.80;;;3.95;;
1402;SDS011;696;48.546;9.896;2022-11-12T08:05:24;5.13;;;3.65;;
1402;SDS011;696;48.546;9.896;2022-11-12T08:07:50;6.45;;;4.28;;
1402;SDS011;696;48.546;9.896;2022-11-12T08:10:15;7.15;;;4.30;;
1402;SDS011;696;48.546;9.896;2022-11-12T08:12:41;5.90;;;4.60;;
1402;SDS011;696;48.546;9.896;2022-11-12T08:15:06;5.07;;;4.20;;
1402;SDS011;696;48.546;9.896;2022-11-12T08:17:31;6.20;;;4.22;;
1402;SDS011;696;48.546;9.896;2022-11-12T08:20:02;6.72;;;4.57;;
1402;SDS011;696;48.546;9.896;2022-11-12T08:22:28;5.72;;;3.97;;
1402;SDS011;696;48.546;9.896;2022-11-12T08:24:53;6.10;;;3.85;;
1402;SDS011;696;48.546;9.896;2022-11-12T08:27:18;5.15;;;3.90;;
1402;SDS011;696;48.546;9.896;2022-11-12T08:29:44;5.10;;;3.85;;
1402;SDS011;696;48.546;9.896;2022-11-12T08:32:09;5.22;;;3.72;;
1402;SDS011;696;48.546;9.896;2022-11-12T08:34:34;6.32;;;4.60;;
1402;SDS011;696;48.546;9.896;2022-11-12T08:37:05;6.82;;;4.90;;
1402;SDS011;696;48.546;9.896;2022-11-12T08:39:30;6.35;;;4.47;;
1402;SDS011;696;48.546;9.896;2022-11-12T08:41:55;7.03;;;4.65;;
1402;SDS011;696;48.546;9.896;2022-11-12T08:44:21;10.27;;;4.75;;
1402;SDS011;696;48.546;9.896;2022-11-12T08:46:46;8.38;;;4.82;;
1402;SDS011;696;48.546;9.896;2022-11-12T08:49:11;4.82;;;3.63;;
1402;SDS011;696;48.546;9.896;2022-11-12T08:51:37;5.55;;;3.67;;
1402;SDS011;696;48.546;9.896;2022-11-12T08:54:02;8.80;;;3.75;;
1402;SDS011;696;48.546;9.896;2022-11-12T08:56:28;5.55;;;3.80;;
1402;SDS011;696;48.546;9.896;2022-11-12T08:58:53;5.70;;;4.10;;
1402;SDS011;696;48.546;9.896;2022-11-12T09:01:18;4.15;;;3.17;;
1402;SDS011;696;48.546;9.896;2022-11-12T09:03:44;11.48;;;4.07;;
1402;SDS011;696;48.546;9.896;2022-11-12T09:06:09;4.85;;;3.22;;
1402;SDS011;696;48.546;9.896;2022-11-12T09:08:34;8.27;;;4.32;;
1402;SDS011;696;48.546;9.896;2022-11-12T09:11:01;8.15;;;4.32;;
1402;SDS011;696;48.546;9.896;2022-11-12T09:13:26;6.55;;;4.40;;
1402;SDS011;696;48.546;9.896;2022-11-12T09:15:52;5.50;;;4.15;;
1402;SDS011;696;48.546;9.896;2022-11-12T09:18:17;7.65;;;5.40;;
1402;SDS011;696;48.546;9.896;2022-11-12T09:20:43;6.43;;;4.93;;
1402;SDS011;696;48.546;9.896;2022-11-12T09:23:13;5.90;;;4.40;;
1402;SDS011;696;48.546;9.896;2022-11-12T09:25:42;7.57;;;5.05;;
1402;SDS011;696;48.546;9.896;2022-11-12T09:28:08;8.35;;;4.95;;
1402;SDS011;696;48.546;9.896;2022-11-12T09:30:41;7.32;;;5.22;;
1402;SDS011;696;48.546;9.896;2022-11-12T09:33:07;7.68;;;4.88;;
1402;SDS011;696;48.546;9.896;2022-11-12T09:35:33;8.48;;;5.35;;
1402;SDS011;696;48.546;9.896;2022-11-12T09:37:58;8.15;;;4.60;;
1402;SDS011;696;48.546;9.896;2022-11-12T09:40:31;8.98;;;5.60;;
1402;SDS011;696;48.546;9.896;2022-11-12T09:43:07;7.95;;;5.28;;
1402;SDS011;696;48.546;9.896;2022-11-12T09:45:35;8.32;;;5.05;;
1402;SDS011;696;48.546;9.896;2022-11-12T09:48:01;7.28;;;4.72;;
1402;SDS011;696;48.546;9.896;2022-11-12T09:50:32;7.60;;;5.03;;
1402;SDS011;696;48.546;9.896;2022-11-12T09:53:06;11.57;;;5.15;;
1402;SDS011;696;48.546;9.896;2022-11-12T09:55:40;8.27;;;4.82;;
1402;SDS011;696;48.546;9.896;2022-11-12T09:58:11;6.80;;;4.85;;
1402;SDS011;696;48.546;9.896;2022-11-12T10:01:12;8.63;;;5.18;;
1402;SDS011;696;48.546;9.896;2022-11-12T10:06:29;11.02;;;4.65;;
1402;SDS011;696;48.546;9.896;2022-11-12T10:09:13;8.82;;;5.53;;
1402;SDS011;696;48.546;9.896;2022-11-12T10:11:45;6.97;;;4.38;;
1402;SDS011;696;48.546;9.896;2022-11-12T10:15:02;6.70;;;4.03;;
1402;SDS011;696;48.546;9.896;2022-11-12T10:18:07;9.10;;;4.30;;
1402;SDS011;696;48.546;9.896;2022-11-12T10:20:47;5.50;;;4.40;;
1402;SDS011;696;48.546;9.896;2022-11-12T10:23:16;6.32;;;4.65;;
1402;SDS011;696;48.546;9.896;2022-11-12T10:25:44;5.22;;;4.13;;
1402;SDS011;696;48.546;9.896;2022-11-12T10:30:49;6.80;;;3.83;;
1402;SDS011;696;48.546;9.896;2022-11-12T10:33:15;5.13;;;3.72;;
1402;SDS011;696;48.546;9.896;2022-11-12T10:35:40;7.35;;;4.07;;
1402;SDS011;696;48.546;9.896;2022-11-12T10:38:08;3.90;;;3.50;;
1402;SDS011;696;48.546;9.896;2022-11-12T10:40:40;5.13;;;3.47;;
1402;SDS011;696;48.546;9.896;2022-11-12T10:45:41;4.25;;;3.35;;
1402;SDS011;696;48.546;9.896;2022-11-12T10:48:26;7.15;;;3.63;;
1402;SDS011;696;48.546;9.896;2022-11-12T10:50:56;5.75;;;4.20;;
1402;SDS011;696;48.546;9.896;2022-11-12T10:53:35;4.55;;;3.70;;
1402;SDS011;696;48.546;9.896;2022-11-12T10:56:03;5.15;;;3.97;;
1402;SDS011;696;48.546;9.896;2022-11-12T10:58:29;5.97;;;4.53;;
1402;SDS011;696;48.546;9.896;2022-11-12T11:03:22;5.20;;;3.78;;
1402;SDS011;696;48.546;9.896;2022-11-12T11:05:51;4.97;;;3.75;;
1402;SDS011;696;48.546;9.896;2022-11-12T11:08:38;5.03;;;3.97;;
1402;SDS011;696;48.546;9.896;2022-11-12T11:13:40;5.68;;;4.28;;
1402;SDS011;696;48.546;9.896;2022-11-12T11:16:07;7.18;;;4.03;;
1402;SDS011;696;48.546;9.896;2022-11-12T11:18:37;5.78;;;4.15;;
1402;SDS011;696;48.546;9.896;2022-11-12T11:29:18;8.68;;;5.82;;
1402;SDS011;696;48.546;9.896;2022-11-12T11:42:50;13.68;;;6.68;;
1402;SDS011;696;48.546;9.896;2022-11-12T11:48:15;11.65;;;6.60;;
1402;SDS011;696;48.546;9.896;2022-11-12T11:50:44;10.55;;;7.13;;
1402;SDS011;696;48.546;9.896;2022-11-12T11:53:36;8.13;;;5.97;;
1402;SDS011;696;48.546;9.896;2022-11-12T11:56:13;13.68;;;6.28;;
1402;SDS011;696;48.546;9.896;2022-11-12T11:58:59;14.32;;;6.78;;
1402;SDS011;696;48.546;9.896;2022-11-12T12:12:55;9.75;;;6.60;;
1402;SDS011;696;48.546;9.896;2022-11-12T12:15:40;11.60;;;6.93;;
1402;SDS011;696;48.546;9.896;2022-11-12T12:21:29;11.05;;;7.00;;
1402;SDS011;696;48.546;9.896;2022-11-12T12:29:09;8.23;;;6.40;;
1402;SDS011;696;48.546;9.896;2022-11-12T12:31:39;13.52;;;8.00;;
1402;SDS011;696;48.546;9.896;2022-11-12T12:34:18;15.75;;;8.98;;
1402;SDS011;696;48.546;9.896;2022-11-12T12:36:44;13.57;;;8.23;;
1402;SDS011;696;48.546;9.896;2022-11-12T12:39:12;10.40;;;7.32;;
1402;SDS011;696;48.546;9.896;2022-11-12T12:41:48;12.02;;;8.18;;
1402;SDS011;696;48.546;9.896;2022-11-12T12:44:18;10.43;;;7.80;;
1402;SDS011;696;48.546;9.896;2022-11-12T12:46:45;15.32;;;8.77;;
1402;SDS011;696;48.546;9.896;2022-11-12T12:49:18;13.35;;;8.15;;
1402;SDS011;696;48.546;9.896;2022-11-12T12:51:51;15.20;;;8.77;;
1402;SDS011;696;48.546;9.896;2022-11-12T12:57:04;13.10;;;8.73;;
1402;SDS011;696;48.546;9.896;2022-11-12T12:59:32;11.18;;;7.82;;
1402;SDS011;696;48.546;9.896;2022-11-12T13:01:59;10.80;;;7.68;;
1402;SDS011;696;48.546;9.896;2022-11-12T13:07:12;14.80;;;9.18;;
1402;SDS011;696;48.546;9.896;2022-11-12T13:09:38;13.48;;;8.98;;
1402;SDS011;696;48.546;9.896;2022-11-12T13:12:03;13.75;;;9.40;;
1402;SDS011;696;48.546;9.896;2022-11-12T13:43:11;17.77;;;11.32;;
1402;SDS011;696;48.546;9.896;2022-11-12T13:48:25;18.35;;;10.20;;
1402;SDS011;696;48.546;9.896;2022-11-12T13:50:56;13.30;;;9.60;;
1402;SDS011;696;48.546;9.896;2022-11-12T13:53:27;14.60;;;9.30;;
1402;SDS011;696;48.546;9.896;2022-11-12T13:55:53;16.60;;;9.70;;
1402;SDS011;696;48.546;9.896;2022-11-12T13:58:29;13.65;;;9.60;;
1402;SDS011;696;48.546;9.896;2022-11-12T14:01:02;28.25;;;14.52;;
1402;SDS011;696;48.546;9.896;2022-11-12T14:03:45;21.45;;;13.25;;
1402;SDS011;696;48.546;9.896;2022-11-12T14:06:30;17.60;;;10.52;;
1402;SDS011;696;48.546;9.896;2022-11-12T14:11:47;19.52;;;13.07;;
1402;SDS011;696;48.546;9.896;2022-11-12T14:20:12;35.00;;;18.92;;
1402;SDS011;696;48.546;9.896;2022-11-12T14:22:43;17.25;;;11.95;;
1402;SDS011;696;48.546;9.896;2022-11-12T14:25:10;14.60;;;10.23;;
1402;SDS011;696;48.546;9.896;2022-11-12T14:27:38;13.57;;;8.82;;
1402;SDS011;696;48.546;9.896;2022-11-12T14:32:35;16.00;;;8.82;;
1402;SDS011;696;48.546;9.896;2022-11-12T14:37:54;13.82;;;7.82;;
1402;SDS011;696;48.546;9.896;2022-11-12T14:40:23;13.40;;;8.38;;
1402;SDS011;696;48.546;9.896;2022-11-12T14:42:50;9.75;;;7.70;;
1402;SDS011;696;48.546;9.896;2022-11-12T14:45:17;14.15;;;8.38;;
1402;SDS011;696;48.546;9.896;2022-11-12T14:47:44;10.23;;;7.68;;
1402;SDS011;696;48.546;9.896;2022-11-12T14:50:15;18.17;;;8.77;;
1402;SDS011;696;48.546;9.896;2022-11-12T14:52:43;13.80;;;9.45;;
1402;SDS011;696;48.546;9.896;2022-11-12T14:55:13;13.13;;;7.93;;
1402;SDS011;696;48.546;9.896;2022-11-12T14:57:41;12.50;;;8.60;;
1402;SDS011;696;48.546;9.896;2022-11-12T15:02:45;16.23;;;8.25;;
1402;SDS011;696;48.546;9.896;2022-11-12T15:13:27;12.55;;;7.78;;
1402;SDS011;696;48.546;9.896;2022-11-12T15:15:50;12.18;;;8.25;;
1402;SDS011;696;48.546;9.896;2022-11-12T15:18:18;11.30;;;7.57;;
1402;SDS011;696;48.546;9.896;2022-11-12T15:20:59;12.13;;;7.90;;
1402;SDS011;696;48.546;9.896;2022-11-12T15:23:45;12.57;;;8.23;;
1402;SDS011;696;48.546;9.896;2022-11-12T15:26:22;13.05;;;8.15;;
1402;SDS011;696;48.546;9.896;2022-11-12T15:28:58;13.90;;;8.18;;
1402;SDS011;696;48.546;9.896;2022-11-12T15:31:24;15.25;;;8.82;;
1402;SDS011;696;48.546;9.896;2022-11-12T15:33:49;11.82;;;7.88;;
1402;SDS011;696;48.546;9.896;2022-11-12T15:36:15;11.57;;;8.25;;
1402;SDS011;696;48.546;9.896;2022-11-12T15:38:46;14.23;;;7.93;;
1402;SDS011;696;48.546;9.896;2022-11-12T15:41:22;12.63;;;7.72;;
1402;SDS011;696;48.546;9.896;2022-11-12T15:43:50;15.05;;;7.50;;
1402;SDS011;696;48.546;9.896;2022-11-12T15:46:15;12.32;;;8.15;;
1402;SDS011;696;48.546;9.896;2022-11-12T15:48:40;16.20;;;8.07;;
1402;SDS011;696;48.546;9.896;2022-11-12T15:51:07;17.48;;;9.57;;
1402;SDS011;696;48.546;9.896;2022-11-12T15:53:33;13.10;;;8.32;;
1402;SDS011;696;48.546;9.896;2022-11-12T15:55:59;15.93;;;9.05;;
1402;SDS011;696;48.546;9.896;2022-11-12T15:58:29;14.13;;;9.00;;
1402;SDS011;696;48.546;9.896;2022-11-12T16:00:57;13.20;;;8.43;;
1402;SDS011;696;48.546;9.896;2022-11-12T16:03:22;13.90;;;8.10;;
1402;SDS011;696;48.546;9.896;2022-11-12T16:05:48;16.77;;;9.18;;
1402;SDS011;696;48.546;9.896;2022-11-12T16:08:13;14.25;;;8.60;;
1402;SDS011;696;48.546;9.896;2022-11-12T16:10:39;13.05;;;8.70;;
1402;SDS011;696;48.546;9.896;2022-11-12T16:13:06;11.77;;;7.97;;
1402;SDS011;696;48.546;9.896;2022-11-12T16:15:34;13.45;;;8.65;;
1402;SDS011;696;48.546;9.896;2022-11-12T16:17:59;12.88;;;8.88;;
1402;SDS011;696;48.546;9.896;2022-11-12T16:20:27;16.90;;;9.82;;
1402;SDS011;696;48.546;9.896;2022-11-12T16:22:55;13.90;;;9.65;;
1402;SDS011;696;48.546;9.896;2022-11-12T16:25:20;16.10;;;8.30;;
1402;SDS011;696;48.546;9.896;2022-11-12T16:27:46;11.90;;;8.35;;
1402;SDS011;696;48.546;9.896;2022-11-12T16:30:16;11.55;;;8.60;;
1402;SDS011;696;48.546;9.896;2022-11-12T16:32:48;11.50;;;8.25;;
1402;SDS011;696;48.546;9.896;2022-11-12T16:35:14;11.27;;;7.80;;
1402;SDS011;696;48.546;9.896;2022-11-12T16:37:41;12.45;;;7.97;;
1402;SDS011;696;48.546;9.896;2022-11-12T16:40:15;13.52;;;8.52;;
1402;SDS011;696;48.546;9.896;2022-11-12T16:42:42;14.43;;;8.55;;
1402;SDS011;696;48.546;9.896;2022-11-12T16:45:19;12.63;;;8.30;;
1402;SDS011;696;48.546;9.896;2022-11-12T16:47:47;11.68;;;7.35;;
1402;SDS011;696;48.546;9.896;2022-11-12T16:50:15;11.40;;;7.13;;
1402;SDS011;696;48.546;9.896;2022-11-12T16:52:42;10.50;;;6.95;;
1402;SDS011;696;48.546;9.896;2022-11-12T16:55:08;11.68;;;8.10;;
1402;SDS011;696;48.546;9.896;2022-11-12T16:57:34;10.23;;;6.53;;
1402;SDS011;696;48.546;9.896;2022-11-12T16:59:59;11.32;;;7.43;;
1402;SDS011;696;48.546;9.896;2022-11-12T17:02:25;10.02;;;6.97;;
1402;SDS011;696;48.546;9.896;2022-11-12T17:04:50;10.65;;;7.07;;
1402;SDS011;696;48.546;9.896;2022-11-12T17:07:16;11.00;;;7.55;;
1402;SDS011;696;48.546;9.896;2022-11-12T17:09:41;8.43;;;6.50;;
1402;SDS011;696;48.546;9.896;2022-11-12T17:12:07;9.73;;;6.15;;
1402;SDS011;696;48.546;9.896;2022-11-12T17:14:33;9.70;;;7.13;;
1402;SDS011;696;48.546;9.896;2022-11-12T17:16:58;8.45;;;6.45;;
1402;SDS011;696;48.546;9.896;2022-11-12T17:19:24;9.88;;;7.50;;
1402;SDS011;696;48.546;9.896;2022-11-12T17:21:49;10.43;;;7.35;;
1402;SDS011;696;48.546;9.896;2022-11-12T17:24:14;9.15;;;6.20;;
1402;SDS011;696;48.546;9.896;2022-11-12T17:26:40;9.15;;;6.82;;
1402;SDS011;696;48.546;9.896;2022-11-12T17:29:05;11.32;;;6.30;;
1402;SDS011;696;48.546;9.896;2022-11-12T17:31:30;8.02;;;6.22;;
1402;SDS011;696;48.546;9.896;2022-11-12T17:33:56;10.98;;;7.25;;
1402;SDS011;696;48.546;9.896;2022-11-12T17:36:23;13.00;;;8.13;;